sensor_id;sensor_type;location;lat;lon;timestamp;pressure;altitude;pressure_sealevel;temperature;humidity
64844;BME280;51310;52.198;5.422;2023-05-20T00:00:08;102338.34;;;11.08;100.00
64844;BME280;51310;52.198;5.422;2023-05-20T00:02:34;102327.88;;;10.99;100.00
64844;BME280;51310;52.198;5.422;2023-05-20T00:05:00;102327.31;;;10.95;100.00
64844;BME280;51310;52.198;5.422;2023-05-20T00:07:26;102329.19;;;10.88;100.00
64844;BME280;51310;52.198;5.422;2023-05-20T00:09:52;102322.53;;;10.91;100.00
64844;BME280;51310;52.198;5.422;2023-05-20T00:12:18;102324.91;;;10.82;100.00
64844;BME280;51310;52.198;5.422;2023-05-20T00:14:43;102323.84;;;10.87;100.00
64844;BME280;51310;52.198;5.422;2023-05-20T00:17:09;102333.75;;;10.84;100.00
64844;BME280;51310;52.198;5.422;2023-05-20T00:19:35;102338.53;;;10.81;100.00
64844;BME280;51310;52.198;5.422;2023-05-20T00:22:01;102339.84;;;10.84;100.00
64844;BME280;51310;52.198;5.422;2023-05-20T00:24:27;102338.00;;;10.76;100.00
64844;BME280;51310;52.198;5.422;2023-05-20T00:26:53;102340.75;;;10.71;100.00
64844;BME280;51310;52.198;5.422;2023-05-20T00:29:21;102334.69;;;10.70;100.00
64844;BME280;51310;52.198;5.422;2023-05-20T00:31:47;102340.59;;;10.69;100.00
64844;BME280;51310;52.198;5.422;2023-05-20T00:34:13;102335.41;;;10.62;100.00
64844;BME280;51310;52.198;5.422;2023-05-20T00:36:38;102329.91;;;10.59;100.00
64844;BME280;51310;52.198;5.422;2023-05-20T00:39:04;102325.31;;;10.56;100.00
64844;BME280;51310;52.198;5.422;2023-05-20T00:41:31;102330.47;;;10.56;100.00
64844;BME280;51310;52.198;5.422;2023-05-20T00:43:56;102329.88;;;10.52;100.00
64844;BME280;51310;52.198;5.422;2023-05-20T00:46:25;102324.56;;;10.50;100.00
64844;BME280;51310;52.198;5.422;2023-05-20T00:48:52;102323.09;;;10.52;100.00
64844;BME280;51310;52.198;5.422;2023-05-20T00:51:18;102324.53;;;10.43;100.00
64844;BME280;51310;52.198;5.422;2023-05-20T00:53:44;102325.66;;;10.45;100.00
64844;BME280;51310;52.198;5.422;2023-05-20T00:56:11;102322.91;;;10.43;100.00
64844;BME280;51310;52.198;5.422;2023-05-20T00:58:39;102322.91;;;10.43;100.00
64844;BME280;51310;52.198;5.422;2023-05-20T01:01:05;102317.22;;;10.39;100.00
64844;BME280;51310;52.198;5.422;2023-05-20T01:03:31;102317.22;;;10.39;100.00
64844;BME280;51310;52.198;5.422;2023-05-20T01:05:57;102317.94;;;10.38;100.00
64844;BME280;51310;52.198;5.422;2023-05-20T01:08:24;102313.16;;;10.34;100.00
64844;BME280;51310;52.198;5.422;2023-05-20T01:11:11;102315.16;;;10.36;100.00
64844;BME280;51310;52.198;5.422;2023-05-20T01:13:54;102312.94;;;10.32;100.00
64844;BME280;51310;52.198;5.422;2023-05-20T01:16:23;102301.03;;;10.33;100.00
64844;BME280;51310;52.198;5.422;2023-05-20T01:18:53;102293.44;;;10.27;100.00
64844;BME280;51310;52.198;5.422;2023-05-20T01:21:20;102306.31;;;10.27;100.00
64844;BME280;51310;52.198;5.422;2023-05-20T01:23:46;102298.22;;;10.24;100.00
64844;BME280;51310;52.198;5.422;2023-05-20T01:26:13;102292.72;;;10.28;100.00
64844;BME280;51310;52.198;5.422;2023-05-20T01:28:40;102299.69;;;10.22;100.00
64844;BME280;51310;52.198;5.422;2023-05-20T01:31:15;102296.72;;;10.19;100.00
64844;BME280;51310;52.198;5.422;2023-05-20T01:33:42;102292.13;;;10.09;100.00
64844;BME280;51310;52.198;5.422;2023-05-20T01:36:09;102287.69;;;10.08;100.00
64844;BME280;51310;52.198;5.422;2023-05-20T01:38:38;102275.56;;;10.00;100.00
64844;BME280;51310;52.198;5.422;2023-05-20T01:41:05;102290.47;;;10.02;100.00
64844;BME280;51310;52.198;5.422;2023-05-20T01:43:31;102287.84;;;9.95;100.00
64844;BME280;51310;52.198;5.422;2023-05-20T01:45:57;102282.00;;;9.96;100.00
64844;BME280;51310;52.198;5.422;2023-05-20T01:48:23;102283.25;;;9.93;100.00
64844;BME280;51310;52.198;5.422;2023-05-20T01:50:48;102285.84;;;9.93;100.00
64844;BME280;51310;52.198;5.422;2023-05-20T01:53:14;102284.72;;;9.83;100.00
64844;BME280;51310;52.198;5.422;2023-05-20T01:55:40;102283.41;;;9.80;100.00
64844;BME280;51310;52.198;5.422;2023-05-20T01:58:06;102273.47;;;9.76;100.00
64844;BME280;51310;52.198;5.422;2023-05-20T02:00:32;102282.66;;;9.74;100.00
64844;BME280;51310;52.198;5.422;2023-05-20T02:03:01;102275.53;;;9.78;100.00
64844;BME280;51310;52.198;5.422;2023-05-20T02:05:28;102279.91;;;9.72;100.00
64844;BME280;51310;52.198;5.422;2023-05-20T02:07:54;102280.09;;;9.74;100.00
64844;BME280;51310;52.198;5.422;2023-05-20T02:10:20;102276.41;;;9.72;100.00
64844;BME280;51310;52.198;5.422;2023-05-20T02:12:46;102277.50;;;9.67;100.00
64844;BME280;51310;52.198;5.422;2023-05-20T02:15:13;102281.34;;;9.63;100.00
64844;BME280;51310;52.198;5.422;2023-05-20T02:17:39;102274.72;;;9.58;100.00
64844;BME280;51310;52.198;5.422;2023-05-20T02:20:08;102290.00;;;9.63;100.00
64844;BME280;51310;52.198;5.422;2023-05-20T02:22:35;102284.25;;;9.59;100.00
64844;BME280;51310;52.198;5.422;2023-05-20T02:25:01;102288.47;;;9.58;100.00
64844;BME280;51310;52.198;5.422;2023-05-20T02:27:27;102283.00;;;9.62;100.00
64844;BME280;51310;52.198;5.422;2023-05-20T02:29:52;102292.34;;;9.62;100.00
64844;BME280;51310;52.198;5.422;2023-05-20T02:32:18;102282.97;;;9.55;100.00
64844;BME280;51310;52.198;5.422;2023-05-20T02:34:45;102281.66;;;9.52;100.00
64844;BME280;51310;52.198;5.422;2023-05-20T02:37:10;102281.13;;;9.54;100.00
64844;BME280;51310;52.198;5.422;2023-05-20T02:39:36;102275.25;;;9.55;100.00
64844;BME280;51310;52.198;5.422;2023-05-20T02:42:02;102279.28;;;9.53;100.00
64844;BME280;51310;52.198;5.422;2023-05-20T02:44:29;102273.03;;;9.51;100.00
64844;BME280;51310;52.198;5.422;2023-05-20T02:46:55;102273.59;;;9.49;100.00
64844;BME280;51310;52.198;5.422;2023-05-20T02:49:20;102264.59;;;9.52;100.00
64844;BME280;51310;52.198;5.422;2023-05-20T02:51:46;102266.44;;;9.53;100.00
64844;BME280;51310;52.198;5.422;2023-05-20T02:54:12;102270.44;;;9.44;100.00
64844;BME280;51310;52.198;5.422;2023-05-20T02:56:37;102270.63;;;9.45;100.00
64844;BME280;51310;52.198;5.422;2023-05-20T02:59:04;102266.94;;;9.43;100.00
64844;BME280;51310;52.198;5.422;2023-05-20T03:01:30;102265.47;;;9.45;100.00
64844;BME280;51310;52.198;5.422;2023-05-20T03:03:58;102269.72;;;9.45;100.00
64844;BME280;51310;52.198;5.422;2023-05-20T03:06:23;102273.72;;;9.43;100.00
64844;BME280;51310;52.198;5.422;2023-05-20T03:08:49;102276.50;;;9.44;100.00
64844;BME280;51310;52.198;5.422;2023-05-20T03:11:15;102273.38;;;9.47;100.00
64844;BME280;51310;52.198;5.422;2023-05-20T03:13:41;102267.34;;;9.47;100.00
64844;BME280;51310;52.198;5.422;2023-05-20T03:16:06;102269.22;;;9.55;100.00
64844;BME280;51310;52.198;5.422;2023-05-20T03:18:32;102265.53;;;9.53;100.00
64844;BME280;51310;52.198;5.422;2023-05-20T03:20:58;102269.38;;;9.56;100.00
64844;BME280;51310;52.198;5.422;2023-05-20T03:23:23;102265.69;;;9.54;100.00
64844;BME280;51310;52.198;5.422;2023-05-20T03:25:49;102270.34;;;9.64;100.00
64844;BME280;51310;52.198;5.422;2023-05-20T03:28:15;102273.47;;;9.69;100.00
64844;BME280;51310;52.198;5.422;2023-05-20T03:30:40;102277.50;;;9.67;100.00
64844;BME280;51310;52.198;5.422;2023-05-20T03:33:06;102272.16;;;9.65;100.00
64844;BME280;51310;52.198;5.422;2023-05-20T03:35:32;102268.88;;;9.73;100.00
64844;BME280;51310;52.198;5.422;2023-05-20T03:37:57;102268.69;;;9.72;100.00
64844;BME280;51310;52.198;5.422;2023-05-20T03:40:26;102274.03;;;9.73;100.00
64844;BME280;51310;52.198;5.422;2023-05-20T03:42:51;102281.75;;;9.80;100.00
64844;BME280;51310;52.198;5.422;2023-05-20T03:45:17;102273.69;;;9.77;100.00
64844;BME280;51310;52.198;5.422;2023-05-20T03:47:43;102270.56;;;9.80;100.00
64844;BME280;51310;52.198;5.422;2023-05-20T03:50:09;102267.06;;;9.79;100.00
64844;BME280;51310;52.198;5.422;2023-05-20T03:52:35;102266.88;;;9.78;100.00
64844;BME280;51310;52.198;5.422;2023-05-20T03:55:01;102273.13;;;9.80;100.00
64844;BME280;51310;52.198;5.422;2023-05-20T03:57:28;102268.03;;;9.87;100.00
64844;BME280;51310;52.198;5.422;2023-05-20T03:59:54;102263.78;;;9.88;100.00
64844;BME280;51310;52.198;5.422;2023-05-20T04:02:20;102269.09;;;9.89;100.00
64844;BME280;51310;52.198;5.422;2023-05-20T04:04:46;102271.16;;;9.99;100.00
64844;BME280;51310;52.198;5.422;2023-05-20T04:07:11;102270.81;;;9.96;100.00
64844;BME280;51310;52.198;5.422;2023-05-20T04:09:37;102269.50;;;9.99;100.00
64844;BME280;51310;52.198;5.422;2023-05-20T04:12:04;102270.81;;;10.03;100.00
64844;BME280;51310;52.198;5.422;2023-05-20T04:14:32;102263.81;;;10.02;100.00
64844;BME280;51310;52.198;5.422;2023-05-20T04:17:02;102266.97;;;10.06;100.00
64844;BME280;51310;52.198;5.422;2023-05-20T04:19:29;102271.00;;;10.12;100.00
64844;BME280;51310;52.198;5.422;2023-05-20T04:21:55;102260.34;;;10.16;100.00
64844;BME280;51310;52.198;5.422;2023-05-20T04:24:21;102264.19;;;10.19;100.00
64844;BME280;51310;52.198;5.422;2023-05-20T04:26:52;102266.06;;;10.20;100.00
64844;BME280;51310;52.198;5.422;2023-05-20T04:29:18;102269.03;;;10.31;100.00
64844;BME280;51310;52.198;5.422;2023-05-20T04:31:48;102268.28;;;10.32;100.00
64844;BME280;51310;52.198;5.422;2023-05-20T04:34:14;102269.19;;;10.32;100.00
64844;BME280;51310;52.198;5.422;2023-05-20T04:36:43;102259.28;;;10.28;100.00
64844;BME280;51310;52.198;5.422;2023-05-20T04:39:10;102274.94;;;10.37;100.00
64844;BME280;51310;52.198;5.422;2023-05-20T04:41:35;102273.63;;;10.33;100.00
64844;BME280;51310;52.198;5.422;2023-05-20T04:44:01;102269.22;;;10.46;100.00
64844;BME280;51310;52.198;5.422;2023-05-20T04:46:28;102275.09;;;10.53;100.00
64844;BME280;51310;52.198;5.422;2023-05-20T04:48:54;102274.00;;;10.65;100.00
64844;BME280;51310;52.198;5.422;2023-05-20T04:51:20;102275.81;;;10.80;100.00
64844;BME280;51310;52.198;5.422;2023-05-20T04:53:46;102276.50;;;11.01;100.00
64844;BME280;51310;52.198;5.422;2023-05-20T04:56:11;102273.00;;;11.15;100.00
64844;BME280;51310;52.198;5.422;2023-05-20T04:58:38;102277.13;;;11.36;100.00
64844;BME280;51310;52.198;5.422;2023-05-20T05:01:04;102271.19;;;11.51;100.00
64844;BME280;51310;52.198;5.422;2023-05-20T05:03:30;102270.66;;;11.91;100.00
64844;BME280;51310;52.198;5.422;2023-05-20T05:05:57;102273.13;;;11.75;100.00
64844;BME280;51310;52.198;5.422;2023-05-20T05:08:23;102268.97;;;11.99;100.00
64844;BME280;51310;52.198;5.422;2023-05-20T05:10:49;102263.28;;;11.87;100.00
64844;BME280;51310;52.198;5.422;2023-05-20T05:13:14;102264.31;;;12.03;100.00
64844;BME280;51310;52.198;5.422;2023-05-20T05:15:40;102262.31;;;12.01;100.00
64844;BME280;51310;52.198;5.422;2023-05-20T05:18:06;102254.69;;;12.09;100.00
64844;BME280;51310;52.198;5.422;2023-05-20T05:20:31;102263.94;;;12.07;100.00
64844;BME280;51310;52.198;5.422;2023-05-20T05:22:57;102257.19;;;11.94;100.00
64844;BME280;51310;52.198;5.422;2023-05-20T05:25:23;102268.41;;;12.01;100.00
64844;BME280;51310;52.198;5.422;2023-05-20T05:27:49;102263.75;;;12.06;100.00
64844;BME280;51310;52.198;5.422;2023-05-20T05:30:15;102257.91;;;12.23;100.00
64844;BME280;51310;52.198;5.422;2023-05-20T05:32:41;102258.91;;;12.16;100.00
64844;BME280;51310;52.198;5.422;2023-05-20T05:35:07;102259.72;;;12.31;100.00
64844;BME280;51310;52.198;5.422;2023-05-20T05:37:33;102253.59;;;12.30;100.00
64844;BME280;51310;52.198;5.422;2023-05-20T05:39:58;102254.69;;;12.56;100.00
64844;BME280;51310;52.198;5.422;2023-05-20T05:42:24;102253.31;;;12.66;100.00
64844;BME280;51310;52.198;5.422;2023-05-20T05:44:50;102253.22;;;12.73;100.00
64844;BME280;51310;52.198;5.422;2023-05-20T05:47:16;102251.03;;;12.69;100.00
64844;BME280;51310;52.198;5.422;2023-05-20T05:49:42;102244.06;;;12.68;100.00
64844;BME280;51310;52.198;5.422;2023-05-20T05:52:07;102245.56;;;12.66;100.00
64844;BME280;51310;52.198;5.422;2023-05-20T05:54:33;102244.97;;;12.85;100.00
64844;BME280;51310;52.198;5.422;2023-05-20T05:56:59;102246.06;;;12.87;100.00
64844;BME280;51310;52.198;5.422;2023-05-20T05:59:24;102245.06;;;12.78;100.00
64844;BME280;51310;52.198;5.422;2023-05-20T06:01:50;102234.09;;;12.87;100.00
64844;BME280;51310;52.198;5.422;2023-05-20T06:04:16;102242.16;;;12.75;100.00
64844;BME280;51310;52.198;5.422;2023-05-20T06:06:42;102244.69;;;12.59;100.00
64844;BME280;51310;52.198;5.422;2023-05-20T06:09:07;102241.06;;;12.88;100.00
64844;BME280;51310;52.198;5.422;2023-05-20T06:11:33;102244.84;;;12.99;100.00
64844;BME280;51310;52.198;5.422;2023-05-20T06:14:00;102235.56;;;13.17;100.00
64844;BME280;51310;52.198;5.422;2023-05-20T06:16:26;102242.78;;;13.20;100.00
64844;BME280;51310;52.198;5.422;2023-05-20T06:18:51;102237.25;;;13.17;100.00
64844;BME280;51310;52.198;5.422;2023-05-20T06:21:22;102242.25;;;13.15;100.00
64844;BME280;51310;52.198;5.422;2023-05-20T06:23:48;102247.19;;;13.21;100.00
64844;BME280;51310;52.198;5.422;2023-05-20T06:26:14;102246.00;;;13.26;100.00
64844;BME280;51310;52.198;5.422;2023-05-20T06:28:39;102247.38;;;13.38;100.00
64844;BME280;51310;52.198;5.422;2023-05-20T06:31:05;102246.78;;;13.41;100.00
64844;BME280;51310;52.198;5.422;2023-05-20T06:33:31;102250.31;;;13.41;100.00
64844;BME280;51310;52.198;5.422;2023-05-20T06:35:58;102245.94;;;13.49;100.00
64844;BME280;51310;52.198;5.422;2023-05-20T06:38:26;102244.97;;;13.40;100.00
64844;BME280;51310;52.198;5.422;2023-05-20T06:40:52;102243.59;;;13.27;100.00
64844;BME280;51310;52.198;5.422;2023-05-20T06:43:18;102242.44;;;13.32;100.00
64844;BME280;51310;52.198;5.422;2023-05-20T06:45:44;102240.59;;;13.47;100.00
64844;BME280;51310;52.198;5.422;2023-05-20T06:48:10;102234.16;;;13.60;100.00
64844;BME280;51310;52.198;5.422;2023-05-20T06:50:36;102236.78;;;13.44;100.00
64844;BME280;51310;52.198;5.422;2023-05-20T06:53:02;102233.19;;;13.50;100.00
64844;BME280;51310;52.198;5.422;2023-05-20T06:55:29;102233.13;;;13.66;100.00
64844;BME280;51310;52.198;5.422;2023-05-20T06:57:54;102228.97;;;13.60;100.00
64844;BME280;51310;52.198;5.422;2023-05-20T07:00:20;102222.78;;;13.66;100.00
64844;BME280;51310;52.198;5.422;2023-05-20T07:02:46;102221.56;;;13.87;100.00
64844;BME280;51310;52.198;5.422;2023-05-20T07:05:11;102223.44;;;13.97;100.00
64844;BME280;51310;52.198;5.422;2023-05-20T07:07:37;102215.88;;;14.07;100.00
64844;BME280;51310;52.198;5.422;2023-05-20T07:10:04;102219.13;;;14.13;100.00
64844;BME280;51310;52.198;5.422;2023-05-20T07:12:31;102219.44;;;14.16;100.00
64844;BME280;51310;52.198;5.422;2023-05-20T07:14:57;102223.56;;;14.23;100.00
64844;BME280;51310;52.198;5.422;2023-05-20T07:17:24;102216.47;;;14.38;100.00
64844;BME280;51310;52.198;5.422;2023-05-20T07:19:50;102212.94;;;14.29;100.00
64844;BME280;51310;52.198;5.422;2023-05-20T07:22:16;102215.38;;;14.61;100.00
64844;BME280;51310;52.198;5.422;2023-05-20T07:24:42;102222.84;;;14.57;100.00
64844;BME280;51310;52.198;5.422;2023-05-20T07:27:07;102215.06;;;14.57;100.00
64844;BME280;51310;52.198;5.422;2023-05-20T07:29:34;102206.41;;;14.74;100.00
64844;BME280;51310;52.198;5.422;2023-05-20T07:32:01;102204.16;;;14.77;100.00
64844;BME280;51310;52.198;5.422;2023-05-20T07:34:27;102205.25;;;14.88;100.00
64844;BME280;51310;52.198;5.422;2023-05-20T07:36:52;102203.81;;;14.74;100.00
64844;BME280;51310;52.198;5.422;2023-05-20T07:39:18;102196.72;;;15.07;100.00
64844;BME280;51310;52.198;5.422;2023-05-20T07:41:44;102197.31;;;15.04;100.00
64844;BME280;51310;52.198;5.422;2023-05-20T07:44:10;102203.59;;;15.24;100.00
64844;BME280;51310;52.198;5.422;2023-05-20T07:46:37;102203.75;;;15.34;100.00
64844;BME280;51310;52.198;5.422;2023-05-20T07:49:04;102202.53;;;15.30;100.00
64844;BME280;51310;52.198;5.422;2023-05-20T07:51:30;102196.72;;;15.33;100.00
64844;BME280;51310;52.198;5.422;2023-05-20T07:53:57;102198.69;;;15.18;100.00
64844;BME280;51310;52.198;5.422;2023-05-20T07:56:22;102203.44;;;15.39;100.00
64844;BME280;51310;52.198;5.422;2023-05-20T07:59:06;102191.50;;;15.50;100.00
64844;BME280;51310;52.198;5.422;2023-05-20T08:01:33;102186.31;;;15.76;100.00
64844;BME280;51310;52.198;5.422;2023-05-20T08:03:59;102180.06;;;15.83;100.00
64844;BME280;51310;52.198;5.422;2023-05-20T08:06:24;102188.16;;;15.77;100.00
64844;BME280;51310;52.198;5.422;2023-05-20T08:08:51;102183.69;;;15.85;100.00
64844;BME280;51310;52.198;5.422;2023-05-20T08:11:19;102183.56;;;15.84;100.00
64844;BME280;51310;52.198;5.422;2023-05-20T08:13:46;102182.75;;;15.93;100.00
64844;BME280;51310;52.198;5.422;2023-05-20T08:16:12;102163.69;;;15.93;100.00
64844;BME280;51310;52.198;5.422;2023-05-20T08:18:38;102179.25;;;15.93;100.00
64844;BME280;51310;52.198;5.422;2023-05-20T08:21:05;102181.09;;;15.85;100.00
64844;BME280;51310;52.198;5.422;2023-05-20T08:23:35;102180.28;;;16.04;100.00
64844;BME280;51310;52.198;5.422;2023-05-20T08:26:01;102172.97;;;15.99;100.00
64844;BME280;51310;52.198;5.422;2023-05-20T08:28:28;102170.50;;;16.10;100.00
64844;BME280;51310;52.198;5.422;2023-05-20T08:30:54;102174.28;;;16.22;100.00
64844;BME280;51310;52.198;5.422;2023-05-20T08:33:20;102175.56;;;16.36;100.00
64844;BME280;51310;52.198;5.422;2023-05-20T08:35:47;102184.63;;;16.31;100.00
64844;BME280;51310;52.198;5.422;2023-05-20T08:38:13;102167.94;;;16.56;100.00
64844;BME280;51310;52.198;5.422;2023-05-20T08:40:39;102159.72;;;16.33;100.00
64844;BME280;51310;52.198;5.422;2023-05-20T08:43:05;102156.31;;;16.61;100.00
64844;BME280;51310;52.198;5.422;2023-05-20T08:45:33;102152.28;;;16.93;100.00
64844;BME280;51310;52.198;5.422;2023-05-20T08:48:00;102155.16;;;16.77;100.00
64844;BME280;51310;52.198;5.422;2023-05-20T08:50:26;102157.75;;;16.77;100.00
64844;BME280;51310;52.198;5.422;2023-05-20T08:52:53;102152.34;;;16.65;89.28
64844;BME280;51310;52.198;5.422;2023-05-20T08:55:37;102154.34;;;16.87;81.15
64844;BME280;51310;52.198;5.422;2023-05-20T08:58:06;102151.22;;;17.48;86.58
64844;BME280;51310;52.198;5.422;2023-05-20T09:00:32;102146.44;;;17.52;84.49
64844;BME280;51310;52.198;5.422;2023-05-20T09:02:59;102139.06;;;17.19;81.29
64844;BME280;51310;52.198;5.422;2023-05-20T09:05:25;102123.94;;;17.34;76.64
64844;BME280;51310;52.198;5.422;2023-05-20T09:07:52;102140.16;;;17.50;82.91
64844;BME280;51310;52.198;5.422;2023-05-20T09:10:19;102130.66;;;17.51;81.49
64844;BME280;51310;52.198;5.422;2023-05-20T09:12:45;102144.63;;;17.61;76.41
64844;BME280;51310;52.198;5.422;2023-05-20T09:15:11;102138.28;;;17.97;82.43
64844;BME280;51310;52.198;5.422;2023-05-20T09:17:38;102144.97;;;18.14;78.68
64844;BME280;51310;52.198;5.422;2023-05-20T09:20:10;102138.13;;;17.86;75.17
64844;BME280;51310;52.198;5.422;2023-05-20T09:22:38;102134.75;;;17.97;71.55
64844;BME280;51310;52.198;5.422;2023-05-20T09:25:04;102144.75;;;17.82;71.34
64844;BME280;51310;52.198;5.422;2023-05-20T09:27:31;102134.75;;;17.87;68.76
64844;BME280;51310;52.198;5.422;2023-05-20T09:29:57;102139.56;;;17.92;69.50
64844;BME280;51310;52.198;5.422;2023-05-20T09:32:22;102140.84;;;17.87;66.30
64844;BME280;51310;52.198;5.422;2023-05-20T09:34:51;102129.56;;;18.07;65.95
64844;BME280;51310;52.198;5.422;2023-05-20T09:37:17;102124.03;;;18.23;66.77
64844;BME280;51310;52.198;5.422;2023-05-20T09:39:55;102123.47;;;18.27;66.07
64844;BME280;51310;52.198;5.422;2023-05-20T09:42:27;102116.31;;;18.14;65.42
64844;BME280;51310;52.198;5.422;2023-05-20T09:44:54;102119.41;;;18.00;68.25
64844;BME280;51310;52.198;5.422;2023-05-20T09:47:22;102113.03;;;18.27;67.79
64844;BME280;51310;52.198;5.422;2023-05-20T09:49:51;102121.19;;;17.61;67.42
64844;BME280;51310;52.198;5.422;2023-05-20T09:52:17;102117.00;;;17.24;67.28
64844;BME280;51310;52.198;5.422;2023-05-20T09:54:44;102110.91;;;17.82;67.00
64844;BME280;51310;52.198;5.422;2023-05-20T09:57:11;102116.44;;;17.76;65.99
64844;BME280;51310;52.198;5.422;2023-05-20T09:59:40;102116.06;;;18.21;66.68
64844;BME280;51310;52.198;5.422;2023-05-20T10:02:07;102110.78;;;18.01;65.45
64844;BME280;51310;52.198;5.422;2023-05-20T10:04:36;102103.56;;;18.28;66.00
64844;BME280;51310;52.198;5.422;2023-05-20T10:11:13;102109.66;;;18.18;64.60
64844;BME280;51310;52.198;5.422;2023-05-20T10:19:34;102095.47;;;18.35;65.13
64844;BME280;51310;52.198;5.422;2023-05-20T10:22:09;102089.59;;;18.27;64.49
64844;BME280;51310;52.198;5.422;2023-05-20T10:24:42;102090.75;;;18.20;63.73
64844;BME280;51310;52.198;5.422;2023-05-20T10:27:13;102085.56;;;18.10;63.26
64844;BME280;51310;52.198;5.422;2023-05-20T10:30:00;102073.13;;;17.87;61.13
64844;BME280;51310;52.198;5.422;2023-05-20T10:32:32;102081.66;;;18.26;61.78
64844;BME280;51310;52.198;5.422;2023-05-20T10:35:02;102085.56;;;18.20;62.98
64844;BME280;51310;52.198;5.422;2023-05-20T10:37:40;102077.38;;;18.47;62.14
64844;BME280;51310;52.198;5.422;2023-05-20T10:42:37;102070.97;;;18.22;62.77
64844;BME280;51310;52.198;5.422;2023-05-20T10:45:03;102062.34;;;17.93;62.73
64844;BME280;51310;52.198;5.422;2023-05-20T10:47:30;102079.56;;;18.21;62.43
64844;BME280;51310;52.198;5.422;2023-05-20T10:49:56;102061.34;;;18.21;62.03
64844;BME280;51310;52.198;5.422;2023-05-20T10:52:26;102071.38;;;18.17;63.21
64844;BME280;51310;52.198;5.422;2023-05-20T10:54:57;102062.50;;;18.66;65.68
64844;BME280;51310;52.198;5.422;2023-05-20T10:57:26;102066.53;;;18.52;63.37
64844;BME280;51310;52.198;5.422;2023-05-20T10:59:52;102056.94;;;19.04;61.95
64844;BME280;51310;52.198;5.422;2023-05-20T11:02:19;102057.91;;;18.84;61.91
64844;BME280;51310;52.198;5.422;2023-05-20T11:04:51;102053.59;;;18.95;63.15
64844;BME280;51310;52.198;5.422;2023-05-20T11:07:44;102049.31;;;18.64;62.53
64844;BME280;51310;52.198;5.422;2023-05-20T11:10:09;102036.97;;;19.04;64.03
64844;BME280;51310;52.198;5.422;2023-05-20T11:12:35;102035.19;;;18.93;64.06
64844;BME280;51310;52.198;5.422;2023-05-20T11:15:01;102041.94;;;19.12;64.01
64844;BME280;51310;52.198;5.422;2023-05-20T11:17:27;102038.31;;;19.54;64.25
64844;BME280;51310;52.198;5.422;2023-05-20T11:19:53;102033.81;;;19.41;61.64
64844;BME280;51310;52.198;5.422;2023-05-20T11:22:18;102032.69;;;19.37;61.60
64844;BME280;51310;52.198;5.422;2023-05-20T11:24:45;102024.38;;;19.53;62.02
64844;BME280;51310;52.198;5.422;2023-05-20T11:27:11;102034.44;;;19.26;64.41
64844;BME280;51310;52.198;5.422;2023-05-20T11:29:38;102046.16;;;18.79;64.63
64844;BME280;51310;52.198;5.422;2023-05-20T11:32:06;102034.97;;;18.59;63.42
64844;BME280;51310;52.198;5.422;2023-05-20T11:34:38;102040.06;;;17.86;65.37
64844;BME280;51310;52.198;5.422;2023-05-20T11:37:08;102036.94;;;17.90;66.46
64844;BME280;51310;52.198;5.422;2023-05-20T11:39:35;102033.69;;;17.93;64.76
64844;BME280;51310;52.198;5.422;2023-05-20T11:42:02;102026.00;;;17.84;64.77
64844;BME280;51310;52.198;5.422;2023-05-20T11:44:28;102037.47;;;18.58;64.63
64844;BME280;51310;52.198;5.422;2023-05-20T11:47:00;102017.19;;;18.96;63.67
64844;BME280;51310;52.198;5.422;2023-05-20T11:49:26;102023.66;;;18.38;65.37
64844;BME280;51310;52.198;5.422;2023-05-20T11:51:52;102017.28;;;18.04;65.70
64844;BME280;51310;52.198;5.422;2023-05-20T11:54:22;102014.69;;;18.14;65.91
64844;BME280;51310;52.198;5.422;2023-05-20T11:56:48;102010.72;;;18.60;65.39
64844;BME280;51310;52.198;5.422;2023-05-20T11:59:14;101996.53;;;19.32;63.74
64844;BME280;51310;52.198;5.422;2023-05-20T12:01:40;102006.06;;;19.97;63.21
64844;BME280;51310;52.198;5.422;2023-05-20T12:04:08;102001.31;;;20.03;61.83
64844;BME280;51310;52.198;5.422;2023-05-20T12:06:35;101997.81;;;19.37;62.15
64844;BME280;51310;52.198;5.422;2023-05-20T12:09:05;101985.34;;;19.77;61.42
64844;BME280;51310;52.198;5.422;2023-05-20T12:11:36;101984.84;;;19.71;61.94
64844;BME280;51310;52.198;5.422;2023-05-20T12:14:03;101978.22;;;19.42;62.42
64844;BME280;51310;52.198;5.422;2023-05-20T12:16:31;101981.59;;;19.63;63.81
64844;BME280;51310;52.198;5.422;2023-05-20T12:18:58;101984.44;;;19.22;63.96
64844;BME280;51310;52.198;5.422;2023-05-20T12:21:24;101959.38;;;18.49;63.48
64844;BME280;51310;52.198;5.422;2023-05-20T12:23:49;101988.53;;;18.86;64.34
64844;BME280;51310;52.198;5.422;2023-05-20T12:26:23;101976.53;;;18.88;64.21
64844;BME280;51310;52.198;5.422;2023-05-20T12:28:49;101984.16;;;18.44;65.55
64844;BME280;51310;52.198;5.422;2023-05-20T12:31:14;101989.88;;;18.40;65.87
64844;BME280;51310;52.198;5.422;2023-05-20T12:33:41;101982.22;;;18.41;66.85
64844;BME280;51310;52.198;5.422;2023-05-20T12:36:08;101982.63;;;18.36;65.78
64844;BME280;51310;52.198;5.422;2023-05-20T12:38:33;101986.00;;;18.88;65.07
64844;BME280;51310;52.198;5.422;2023-05-20T12:40:59;101981.91;;;19.12;63.32
64844;BME280;51310;52.198;5.422;2023-05-20T12:43:26;101984.31;;;19.86;61.54
64844;BME280;51310;52.198;5.422;2023-05-20T12:45:52;101974.69;;;19.63;61.29
64844;BME280;51310;52.198;5.422;2023-05-20T12:48:18;101974.00;;;19.88;60.45
64844;BME280;51310;52.198;5.422;2023-05-20T12:50:44;101974.50;;;19.28;60.98
64844;BME280;51310;52.198;5.422;2023-05-20T12:53:10;101978.75;;;19.38;62.05
64844;BME280;51310;52.198;5.422;2023-05-20T12:55:36;101971.03;;;19.39;61.65